createdAt,value
2022-09-24T00:04:30.118Z,11.54
2022-09-24T00:09:22.443Z,11.49
2022-09-24T00:14:14.279Z,11.44
2022-09-24T00:19:06.173Z,11.34
2022-09-24T00:24:00.293Z,11.28
2022-09-24T00:28:52.982Z,11.25
2022-09-24T00:33:45.028Z,11.19
2022-09-24T00:38:36.680Z,11.15
2022-09-24T00:43:34.088Z,11.11
2022-09-24T00:48:26.041Z,11.05
2022-09-24T00:53:22.289Z,10.98
2022-09-24T00:58:14.669Z,10.96
2022-09-24T01:03:12.890Z,10.91
2022-09-24T01:08:06.679Z,10.87
2022-09-24T01:13:07.156Z,10.85
2022-09-24T01:18:05.829Z,10.78
2022-09-24T01:23:24.798Z,10.69
2022-09-24T01:28:37.914Z,10.60
2022-09-24T01:33:32.155Z,10.56
2022-09-24T01:38:34.808Z,10.53
2022-09-24T01:43:28.385Z,10.50
2022-09-24T01:48:21.965Z,10.50
2022-09-24T01:53:34.852Z,10.50
2022-09-24T01:58:37.447Z,10.51
2022-09-24T02:03:36.923Z,10.52
2022-09-24T02:08:37.215Z,10.49
2022-09-24T02:13:38.886Z,10.48
2022-09-24T02:18:35.949Z,10.44
2022-09-24T02:23:29.598Z,10.39
2022-09-24T02:28:21.669Z,10.31
2022-09-24T02:33:34.566Z,10.28
2022-09-24T02:38:26.181Z,10.26
2022-09-24T02:43:18.039Z,10.24
2022-09-24T02:48:09.718Z,10.22
2022-09-24T02:53:01.887Z,10.19
2022-09-24T02:57:53.879Z,10.16
2022-09-24T03:02:45.665Z,10.11
2022-09-24T03:07:37.418Z,10.08
2022-09-24T03:12:29.409Z,10.03
2022-09-24T03:17:21.079Z,10.01
2022-09-24T03:22:12.710Z,10.00
2022-09-24T03:27:04.381Z,10.01
2022-09-24T03:31:56.054Z,10.05
2022-09-24T03:36:47.773Z,10.11
2022-09-24T03:41:39.460Z,10.15
2022-09-24T03:46:31.203Z,10.16
2022-09-24T03:51:22.869Z,10.15
2022-09-24T03:56:15.059Z,10.18
2022-09-24T04:01:08.066Z,10.23
2022-09-24T04:05:59.814Z,10.25
2022-09-24T04:10:51.841Z,10.27
2022-09-24T04:15:43.649Z,10.29
2022-09-24T04:20:35.995Z,10.31
2022-09-24T04:25:30.961Z,10.34
2022-09-24T04:30:23.686Z,10.36
2022-09-24T04:35:15.307Z,10.38
2022-09-24T04:40:12.703Z,10.34
2022-09-24T04:45:06.020Z,10.33
2022-09-24T04:49:57.737Z,10.33
2022-09-24T04:54:49.289Z,10.29
2022-09-24T04:59:41.434Z,10.28
2022-09-24T05:04:33.115Z,10.24
2022-09-24T05:09:24.842Z,10.25
2022-09-24T05:14:16.518Z,10.22
2022-09-24T05:19:08.267Z,10.20
2022-09-24T05:23:59.894Z,10.15
2022-09-24T05:28:53.102Z,10.15
2022-09-24T05:33:44.781Z,10.14
2022-09-24T05:38:39.796Z,10.14
2022-09-24T05:43:33.138Z,10.10
2022-09-24T05:48:26.145Z,10.05
2022-09-24T05:53:18.434Z,10.03
2022-09-24T05:58:11.331Z,9.98
2022-09-24T06:03:11.005Z,9.92
2022-09-24T06:08:04.306Z,9.89
2022-09-24T06:12:56.846Z,9.87
2022-09-24T06:17:48.649Z,9.81
2022-09-24T06:22:40.535Z,9.78
2022-09-24T06:27:32.153Z,9.74
2022-09-24T06:32:24.553Z,9.72
2022-09-24T06:37:16.311Z,9.66
2022-09-24T06:42:07.934Z,9.64
2022-09-24T06:47:00.497Z,9.61
2022-09-24T06:51:54.263Z,9.66
2022-09-24T06:56:46.118Z,9.93
2022-09-24T07:01:37.816Z,10.21
2022-09-24T07:06:49.660Z,10.74
2022-09-24T07:11:41.949Z,11.76
2022-09-24T07:16:33.689Z,12.74
2022-09-24T07:21:25.701Z,13.57
2022-09-24T07:26:17.408Z,14.31
2022-09-24T07:31:09.397Z,14.95
2022-09-24T07:36:07.255Z,15.57
2022-09-24T07:40:59.403Z,16.24
2022-09-24T07:45:53.487Z,16.73
2022-09-24T07:50:45.270Z,17.14
2022-09-24T07:55:40.516Z,17.73
2022-09-24T08:00:32.123Z,18.36
2022-09-24T08:05:23.839Z,18.75
2022-09-24T08:10:15.576Z,19.17
2022-09-24T08:15:07.825Z,19.65
2022-09-24T08:19:59.553Z,19.89
2022-09-24T08:24:51.219Z,20.09
2022-09-24T08:29:42.894Z,20.49
2022-09-24T08:34:38.553Z,20.86
2022-09-24T08:39:30.446Z,21.20
2022-09-24T08:44:55.187Z,21.70
2022-09-24T08:49:52.604Z,22.04
2022-09-24T08:54:48.725Z,22.33
2022-09-24T08:59:44.157Z,22.61
2022-09-24T09:04:48.557Z,22.78
2022-09-24T09:09:46.680Z,22.81
2022-09-24T09:14:56.965Z,23.22
2022-09-24T09:19:57.661Z,23.37
2022-09-24T09:24:52.081Z,23.26
2022-09-24T09:29:50.832Z,23.64
2022-09-24T09:34:48.363Z,23.89
2022-09-24T09:39:55.158Z,23.92
2022-09-24T09:44:47.027Z,23.99
2022-09-24T09:49:40.475Z,24.12
2022-09-24T09:54:39.831Z,24.15
2022-09-24T09:59:34.165Z,23.92
2022-09-24T10:04:31.175Z,23.84
2022-09-24T10:09:22.739Z,24.01
2022-09-24T10:14:18.344Z,24.19
2022-09-24T10:19:36.804Z,24.28
2022-09-24T10:24:29.301Z,23.95
2022-09-24T10:29:51.245Z,23.77
2022-09-24T10:34:42.981Z,23.98
2022-09-24T10:39:34.931Z,24.40
2022-09-24T10:44:37.671Z,24.57
2022-09-24T10:49:50.661Z,24.78
2022-09-24T10:55:13.038Z,24.91
2022-09-24T11:00:19.777Z,24.46
2022-09-24T11:05:15.631Z,24.55
2022-09-24T11:10:10.478Z,24.59
2022-09-24T11:15:26.881Z,24.48
2022-09-24T11:20:29.895Z,24.75
2022-09-24T11:25:44.918Z,24.80
2022-09-24T11:30:47.917Z,24.42
2022-09-24T11:36:13.496Z,24.08
2022-09-24T11:41:17.159Z,23.05
2022-09-24T11:46:17.706Z,22.56
2022-09-24T11:51:30.268Z,22.47
2022-09-24T11:56:26.242Z,22.67
2022-09-24T12:01:29.908Z,22.76
2022-09-24T12:06:37.964Z,22.26
2022-09-24T12:11:36.355Z,22.31
2022-09-24T12:16:33.587Z,22.33
2022-09-24T12:21:34.613Z,22.26
2022-09-24T12:26:28.814Z,22.30
2022-09-24T12:31:54.692Z,21.88
2022-09-24T12:36:59.936Z,21.58
2022-09-24T12:41:59.891Z,21.40
2022-09-24T12:46:54.780Z,21.11
2022-09-24T12:51:47.593Z,20.45
2022-09-24T12:56:41.138Z,19.88
2022-09-24T13:01:34.351Z,19.32
2022-09-24T13:06:35.516Z,19.15
2022-09-24T13:11:29.839Z,19.23
2022-09-24T13:16:23.057Z,18.92
2022-09-24T13:21:41.033Z,18.84
2022-09-24T13:26:35.885Z,18.86
2022-09-24T13:31:27.639Z,18.90
2022-09-24T13:36:31.463Z,18.98
2022-09-24T13:41:31.768Z,19.00
2022-09-24T13:46:25.829Z,18.79
2022-09-24T13:51:21.249Z,18.66
2022-09-24T13:56:17.066Z,18.46
2022-09-24T14:01:14.036Z,18.22
2022-09-24T14:06:17.667Z,18.07
2022-09-24T14:11:19.613Z,17.84
2022-09-24T14:16:16.742Z,17.81
2022-09-24T14:21:22.978Z,18.01
2022-09-24T14:26:31.684Z,17.93
2022-09-24T14:31:23.808Z,17.87
2022-09-24T14:36:16.973Z,17.87
2022-09-24T14:41:18.146Z,17.95
2022-09-24T14:46:17.529Z,18.06
2022-09-24T14:51:26.042Z,18.06
2022-09-24T14:56:28.720Z,18.18
2022-09-24T15:01:25.040Z,18.17
2022-09-24T15:06:26.549Z,17.98
2022-09-24T15:11:18.319Z,17.67
2022-09-24T15:16:21.426Z,17.43
2022-09-24T15:21:13.515Z,17.21
2022-09-24T15:26:05.302Z,17.03
2022-09-24T15:30:57.451Z,16.93
2022-09-24T15:35:49.407Z,16.85
2022-09-24T15:40:42.248Z,16.78
2022-09-24T15:45:33.939Z,16.76
2022-09-24T15:50:26.420Z,16.71
2022-09-24T15:55:20.537Z,16.66
2022-09-24T16:00:18.387Z,16.70
2022-09-24T16:05:12.986Z,16.64
2022-09-24T16:10:05.136Z,16.56
2022-09-24T16:14:59.445Z,16.47
2022-09-24T16:19:51.392Z,16.37
2022-09-24T16:24:43.043Z,16.25
2022-09-24T16:29:34.834Z,16.15
2022-09-24T16:34:26.720Z,16.09
2022-09-24T16:39:19.615Z,16.06
2022-09-24T16:44:15.257Z,15.89
2022-09-24T16:49:07.188Z,15.74
2022-09-24T16:53:59.099Z,15.69
2022-09-24T16:58:52.541Z,15.63
2022-09-24T17:03:44.903Z,15.53
2022-09-24T17:08:55.533Z,15.44
2022-09-24T17:13:47.863Z,15.37
2022-09-24T17:18:39.657Z,15.29
2022-09-24T17:23:31.389Z,15.22
2022-09-24T17:28:22.981Z,15.18
2022-09-24T17:33:39.025Z,15.08
2022-09-24T17:38:27.364Z,14.96
2022-09-24T17:43:19.021Z,14.82
2022-09-24T17:48:10.702Z,14.69
2022-09-24T17:53:03.965Z,14.56
2022-09-24T17:57:55.728Z,14.39
2022-09-24T18:02:47.402Z,14.27
2022-09-24T18:07:39.237Z,14.17
2022-09-24T18:12:30.982Z,13.97
2022-09-24T18:17:22.539Z,13.90
2022-09-24T18:22:14.332Z,13.83
2022-09-24T18:27:06.046Z,13.76
2022-09-24T18:31:57.753Z,13.70
2022-09-24T18:36:49.541Z,13.61
2022-09-24T18:41:42.724Z,13.52
2022-09-24T18:46:34.698Z,13.42
2022-09-24T18:51:32.438Z,13.29
2022-09-24T18:56:24.917Z,13.23
2022-09-24T19:01:16.818Z,13.14
2022-09-24T19:06:08.548Z,13.02
2022-09-24T19:11:07.730Z,12.93
2022-09-24T19:16:04.527Z,12.80
2022-09-24T19:20:57.496Z,12.72
2022-09-24T19:25:49.499Z,12.62
2022-09-24T19:30:46.050Z,12.56
2022-09-24T19:35:38.023Z,12.51
2022-09-24T19:40:31.557Z,12.45
2022-09-24T19:45:26.117Z,12.40
2022-09-24T19:50:20.055Z,12.35
2022-09-24T19:55:11.921Z,12.25
2022-09-24T20:00:05.595Z,12.12
2022-09-24T20:04:57.333Z,12.04
2022-09-24T20:09:49.225Z,11.95
2022-09-24T20:14:41.220Z,11.86
2022-09-24T20:19:32.975Z,11.77
2022-09-24T20:24:24.806Z,11.71
2022-09-24T20:29:16.631Z,11.60
2022-09-24T20:34:09.712Z,11.50
2022-09-24T20:39:01.789Z,11.40
2022-09-24T20:43:57.651Z,11.33
2022-09-24T20:48:50.129Z,11.25
2022-09-24T20:53:44.058Z,11.20
2022-09-24T20:58:37.070Z,11.16
2022-09-24T21:03:44.047Z,11.08
2022-09-24T21:08:42.190Z,11.01
2022-09-24T21:13:34.713Z,10.95
2022-09-24T21:18:35.739Z,10.90
2022-09-24T21:23:32.940Z,10.85
2022-09-24T21:28:24.607Z,10.84
2022-09-24T21:33:16.487Z,10.77
2022-09-24T21:38:08.113Z,10.73
2022-09-24T21:43:00.284Z,10.70
2022-09-24T21:47:53.258Z,10.68
2022-09-24T21:52:45.023Z,10.67
2022-09-24T21:57:36.792Z,10.66
2022-09-24T22:02:28.893Z,10.65
2022-09-24T22:07:20.594Z,10.62
2022-09-24T22:12:12.434Z,10.56
2022-09-24T22:17:05.953Z,10.54
2022-09-24T22:21:58.264Z,10.53
2022-09-24T22:26:50.305Z,10.46
2022-09-24T22:31:41.930Z,10.43
2022-09-24T22:36:35.425Z,10.39
2022-09-24T22:41:29.134Z,10.35
2022-09-24T22:46:21.954Z,10.30
2022-09-24T22:51:14.964Z,10.27
2022-09-24T22:56:12.276Z,10.23
2022-09-24T23:01:17.464Z,10.17
2022-09-24T23:06:11.077Z,10.11
2022-09-24T23:11:14.746Z,10.05
2022-09-24T23:16:14.994Z,10.01
2022-09-24T23:21:11.626Z,9.98
2022-09-24T23:26:19.024Z,9.91
2022-09-24T23:31:13.849Z,9.86
2022-09-24T23:36:07.207Z,9.81
2022-09-24T23:41:00.751Z,9.79
2022-09-24T23:45:52.568Z,9.74
2022-09-24T23:50:44.519Z,9.65
2022-09-24T23:55:36.480Z,9.56
